createdAt,value
2022-09-30T00:01:28.009Z,9.83
2022-09-30T00:06:37.100Z,9.82
2022-09-30T00:11:55.152Z,9.81
2022-09-30T00:17:04.452Z,9.78
2022-09-30T00:22:26.231Z,9.77
2022-09-30T00:27:40.515Z,9.74
2022-09-30T00:32:51.716Z,9.70
2022-09-30T00:38:08.417Z,9.65
2022-09-30T00:43:21.924Z,9.60
2022-09-30T00:48:37.906Z,9.54
2022-09-30T00:54:02.666Z,9.51
2022-09-30T00:59:25.545Z,9.46
2022-09-30T01:04:38.050Z,9.43
2022-09-30T01:09:50.967Z,9.40
2022-09-30T01:15:05.226Z,9.38
2022-09-30T01:20:55.069Z,9.40
2022-09-30T01:26:56.224Z,9.36
2022-09-30T01:32:18.147Z,9.30
2022-09-30T01:37:43.267Z,9.26
2022-09-30T01:43:03.996Z,9.23
2022-09-30T01:48:27.819Z,9.17
2022-09-30T01:53:46.970Z,9.16
2022-09-30T01:58:59.761Z,9.12
2022-09-30T02:04:22.285Z,9.09
2022-09-30T02:09:34.931Z,9.04
2022-09-30T02:14:50.139Z,9.05
2022-09-30T02:20:33.888Z,9.00
2022-09-30T02:25:47.560Z,8.96
2022-09-30T02:30:58.239Z,8.95
2022-09-30T02:36:26.129Z,8.89
2022-09-30T02:41:39.779Z,8.85
2022-09-30T02:47:00.135Z,8.86
2022-09-30T02:52:27.099Z,8.85
2022-09-30T02:57:47.248Z,8.84
2022-09-30T03:02:59.580Z,8.81
2022-09-30T03:08:26.825Z,8.83
2022-09-30T03:14:12.981Z,8.81
2022-09-30T03:19:38.095Z,8.75
2022-09-30T03:25:12.911Z,8.74
2022-09-30T03:30:36.785Z,8.72
2022-09-30T03:35:55.849Z,8.70
2022-09-30T03:41:18.941Z,8.70
2022-09-30T03:46:29.682Z,8.70
2022-09-30T03:51:50.758Z,8.71
2022-09-30T03:57:32.818Z,8.70
2022-09-30T04:02:42.168Z,8.66
2022-09-30T04:07:51.531Z,8.64
2022-09-30T04:13:12.341Z,8.60
2022-09-30T04:18:33.060Z,8.56
2022-09-30T04:23:43.889Z,8.54
2022-09-30T04:29:06.728Z,8.52
2022-09-30T04:34:20.337Z,8.48
2022-09-30T04:39:27.523Z,8.47
2022-09-30T04:44:49.391Z,8.43
2022-09-30T04:49:59.763Z,8.40
2022-09-30T04:55:16.098Z,8.38
2022-09-30T05:00:24.937Z,8.36
2022-09-30T05:05:35.016Z,8.33
2022-09-30T05:11:07.863Z,8.34
2022-09-30T05:16:24.225Z,8.35
2022-09-30T05:21:37.574Z,8.33
2022-09-30T05:27:12.751Z,8.32
2022-09-30T05:32:32.810Z,8.33
2022-09-30T05:37:43.732Z,8.36
2022-09-30T05:42:57.206Z,8.38
2022-09-30T05:48:07.477Z,8.41
2022-09-30T05:53:13.224Z,8.46
2022-09-30T05:58:43.212Z,8.53
2022-09-30T06:03:52.208Z,8.61
2022-09-30T06:09:02.742Z,8.69
2022-09-30T06:14:11.266Z,8.79
2022-09-30T06:19:22.145Z,8.93
2022-09-30T06:24:39.420Z,9.05
2022-09-30T06:29:49.438Z,9.20
2022-09-30T06:35:01.377Z,9.90
2022-09-30T06:40:10.347Z,11.33
2022-09-30T06:45:30.350Z,12.10
2022-09-30T06:51:01.502Z,12.08
2022-09-30T06:56:09.106Z,12.57
2022-09-30T07:01:32.432Z,12.55
2022-09-30T07:06:48.709Z,13.34
2022-09-30T07:11:59.678Z,13.57
2022-09-30T07:17:25.275Z,13.60
2022-09-30T07:22:43.308Z,13.73
2022-09-30T07:28:29.102Z,13.81
2022-09-30T07:44:28.394Z,14.11
2022-09-30T07:49:59.256Z,14.17
2022-09-30T07:55:24.312Z,14.34
2022-09-30T08:00:44.286Z,14.46
2022-09-30T08:06:12.718Z,14.60
2022-09-30T08:11:26.944Z,14.67
2022-09-30T08:16:32.192Z,14.84
2022-09-30T08:21:47.565Z,15.07
2022-09-30T08:27:08.686Z,15.13
2022-09-30T08:32:17.727Z,15.34
2022-09-30T08:37:26.449Z,15.35
2022-09-30T08:43:04.247Z,15.51
2022-09-30T08:48:30.467Z,15.70
2022-09-30T08:53:39.492Z,15.67
2022-09-30T08:59:00.119Z,15.79
2022-09-30T09:04:25.817Z,15.89
2022-09-30T09:10:18.752Z,15.92
2022-09-30T09:15:53.192Z,16.03
2022-09-30T09:21:06.326Z,16.13
2022-09-30T09:26:30.808Z,16.29
2022-09-30T09:31:54.260Z,16.39
2022-09-30T09:37:19.310Z,16.42
2022-09-30T09:43:07.669Z,16.59
2022-09-30T09:48:18.385Z,16.64
2022-09-30T09:54:12.655Z,16.77
2022-09-30T09:59:26.212Z,16.76
2022-09-30T10:04:44.419Z,16.88
2022-09-30T10:09:49.556Z,16.81
2022-09-30T10:15:20.688Z,16.64
2022-09-30T10:20:39.066Z,16.62
2022-09-30T10:25:57.931Z,16.77
2022-09-30T10:31:10.170Z,16.97
2022-09-30T10:36:19.863Z,17.12
2022-09-30T10:41:41.396Z,17.14
2022-09-30T10:46:55.653Z,17.26
2022-09-30T10:52:05.644Z,17.40
2022-09-30T10:57:17.618Z,17.58
2022-09-30T11:02:53.265Z,17.66
2022-09-30T11:08:21.509Z,17.81
2022-09-30T11:13:52.706Z,17.93
2022-09-30T11:19:11.430Z,18.02
2022-09-30T11:24:30.415Z,18.11
2022-09-30T11:29:50.986Z,18.19
2022-09-30T11:35:14.029Z,18.27
2022-09-30T11:40:50.879Z,18.21
2022-09-30T11:46:44.629Z,18.20
2022-09-30T11:52:11.496Z,18.20
2022-09-30T11:57:25.007Z,18.29
2022-09-30T12:02:49.360Z,18.28
2022-09-30T12:08:03.619Z,18.35
2022-09-30T12:13:16.395Z,18.29
2022-09-30T12:18:52.555Z,18.26
2022-09-30T12:24:22.828Z,18.38
2022-09-30T12:29:51.215Z,18.32
2022-09-30T12:35:28.756Z,18.41
2022-09-30T12:40:59.771Z,18.47
2022-09-30T12:46:19.698Z,18.51
2022-09-30T12:51:32.251Z,18.43
2022-09-30T12:56:40.265Z,18.31
2022-09-30T13:01:49.764Z,18.27
2022-09-30T13:07:22.374Z,18.38
2022-09-30T13:12:30.735Z,18.48
2022-09-30T13:17:36.893Z,18.51
2022-09-30T13:23:20.163Z,18.52
2022-09-30T13:28:46.107Z,18.34
2022-09-30T13:34:10.421Z,18.25
2022-09-30T13:39:29.815Z,18.21
2022-09-30T13:44:42.375Z,18.15
2022-09-30T13:50:03.666Z,18.14
2022-09-30T13:55:27.120Z,18.09
2022-09-30T14:00:48.630Z,18.08
2022-09-30T14:06:20.902Z,18.05
2022-09-30T14:11:57.193Z,18.04
2022-09-30T14:17:43.173Z,18.03
2022-09-30T14:22:48.579Z,17.96
2022-09-30T14:28:19.552Z,17.93
2022-09-30T14:33:48.721Z,17.85
2022-09-30T14:39:00.731Z,17.78
2022-09-30T14:44:25.621Z,17.80
2022-09-30T14:49:36.617Z,17.74
2022-09-30T14:55:14.663Z,17.61
2022-09-30T15:00:37.031Z,17.55
2022-09-30T15:05:46.062Z,17.47
2022-09-30T15:11:08.774Z,17.40
2022-09-30T15:16:36.508Z,17.33
2022-09-30T15:21:51.123Z,17.23
2022-09-30T15:26:58.379Z,17.17
2022-09-30T15:32:25.806Z,17.15
2022-09-30T15:37:49.570Z,17.07
2022-09-30T15:43:01.593Z,17.02
2022-09-30T15:48:39.631Z,16.94
2022-09-30T15:53:53.493Z,16.87
2022-09-30T15:58:59.445Z,16.77
2022-09-30T16:04:20.270Z,16.72
2022-09-30T16:09:41.218Z,16.63
2022-09-30T16:15:05.061Z,16.52
2022-09-30T16:20:30.927Z,16.39
2022-09-30T16:25:38.031Z,16.24
2022-09-30T16:30:50.787Z,16.12
2022-09-30T16:36:00.792Z,15.99
2022-09-30T16:41:15.420Z,15.87
2022-09-30T16:46:22.264Z,15.73
2022-09-30T16:51:28.342Z,15.60
2022-09-30T16:56:39.235Z,15.47
2022-09-30T17:01:48.965Z,15.33
2022-09-30T17:07:00.961Z,15.20
2022-09-30T17:12:07.773Z,15.06
2022-09-30T17:17:26.670Z,14.93
2022-09-30T17:22:35.758Z,14.81
2022-09-30T17:27:49.325Z,14.69
2022-09-30T17:33:11.900Z,14.57
2022-09-30T17:38:20.950Z,14.45
2022-09-30T17:43:33.270Z,14.34
2022-09-30T17:48:39.758Z,14.24
2022-09-30T17:53:45.130Z,14.14
2022-09-30T17:58:57.763Z,14.04
2022-09-30T18:04:15.324Z,13.95
2022-09-30T18:09:29.404Z,13.84
2022-09-30T18:14:48.516Z,13.75
2022-09-30T18:19:57.791Z,13.66
2022-09-30T18:25:24.995Z,13.59
2022-09-30T18:30:31.587Z,13.55
2022-09-30T18:35:43.274Z,13.48
2022-09-30T18:41:05.841Z,13.43
2022-09-30T18:46:30.061Z,13.37
2022-09-30T18:51:35.750Z,13.28
2022-09-30T18:56:47.094Z,13.21
2022-09-30T19:02:03.205Z,13.13
2022-09-30T19:07:08.506Z,13.05
2022-09-30T19:12:15.602Z,12.98
2022-09-30T19:17:23.828Z,12.91
2022-09-30T19:22:32.146Z,12.85
2022-09-30T19:27:42.489Z,12.77
2022-09-30T19:32:58.544Z,12.70
2022-09-30T19:38:11.580Z,12.62
2022-09-30T19:43:23.848Z,12.56
2022-09-30T19:48:36.756Z,12.50
2022-09-30T19:53:46.411Z,12.41
2022-09-30T19:59:17.404Z,12.35
2022-09-30T20:04:32.412Z,12.28
2022-09-30T20:09:46.357Z,12.23
2022-09-30T20:15:30.668Z,12.14
2022-09-30T20:20:51.958Z,12.08
2022-09-30T20:26:05.930Z,12.02
2022-09-30T20:31:20.924Z,11.95
2022-09-30T20:36:37.939Z,11.91
2022-09-30T20:42:01.838Z,11.85
2022-09-30T20:47:35.101Z,11.82
2022-09-30T20:52:47.736Z,11.75
2022-09-30T21:03:33.361Z,11.71
2022-09-30T21:08:51.375Z,11.69
2022-09-30T21:13:56.791Z,11.64
2022-09-30T21:19:08.249Z,11.60
2022-09-30T21:24:26.612Z,11.57
2022-09-30T21:29:47.161Z,11.50
2022-09-30T21:40:29.292Z,11.43
2022-09-30T21:46:09.945Z,11.39
2022-09-30T21:51:16.675Z,11.32
2022-09-30T21:56:25.241Z,11.29
2022-09-30T22:01:36.887Z,11.24
2022-09-30T22:06:52.976Z,11.21
2022-09-30T22:12:13.233Z,11.19
2022-09-30T22:17:21.190Z,11.13
2022-09-30T22:22:29.639Z,11.12
2022-09-30T22:27:58.779Z,11.09
2022-09-30T22:33:23.439Z,11.04
2022-09-30T22:38:33.691Z,11.00
2022-09-30T22:43:46.824Z,10.96
2022-09-30T22:49:03.892Z,10.95
2022-09-30T22:54:13.315Z,10.90
2022-09-30T22:59:24.492Z,10.87
2022-09-30T23:04:34.214Z,10.81
2022-09-30T23:09:47.299Z,10.79
2022-09-30T23:14:59.390Z,10.76
2022-09-30T23:20:21.599Z,10.74
2022-09-30T23:25:32.399Z,10.74
2022-09-30T23:30:39.561Z,10.72
2022-09-30T23:35:48.692Z,10.71
2022-09-30T23:40:55.970Z,10.68
2022-09-30T23:46:14.848Z,10.68
2022-09-30T23:51:20.162Z,10.65
2022-09-30T23:56:26.196Z,10.65
